sensor_id;sensor_type;location;lat;lon;timestamp;P1;durP1;ratioP1;P2;durP2;ratioP2
37365;SDS011;23239;51.504;7.456;2023-04-25T00:00:00;15.0;;;5.4;;
37365;SDS011;23239;51.504;7.456;2023-04-25T00:01:00;17.6;;;5.8;;
37365;SDS011;23239;51.504;7.456;2023-04-25T00:02:00;17.6;;;5.8;;
37365;SDS011;23239;51.504;7.456;2023-04-25T00:03:00;17.6;;;5.8;;
37365;SDS011;23239;51.504;7.456;2023-04-25T00:04:00;17.6;;;5.8;;
37365;SDS011;23239;51.504;7.456;2023-04-25T00:05:00;17.6;;;5.8;;
37365;SDS011;23239;51.504;7.456;2023-04-25T00:06:00;13.0;;;5.1;;
37365;SDS011;23239;51.504;7.456;2023-04-25T00:07:00;13.0;;;5.1;;
37365;SDS011;23239;51.504;7.456;2023-04-25T00:08:00;13.0;;;5.1;;
37365;SDS011;23239;51.504;7.456;2023-04-25T00:09:00;13.0;;;5.1;;
37365;SDS011;23239;51.504;7.456;2023-04-25T00:10:00;13.0;;;5.1;;
37365;SDS011;23239;51.504;7.456;2023-04-25T00:11:00;14.0;;;5.3;;
37365;SDS011;23239;51.504;7.456;2023-04-25T00:12:00;14.0;;;5.3;;
37365;SDS011;23239;51.504;7.456;2023-04-25T00:13:00;14.0;;;5.3;;
37365;SDS011;23239;51.504;7.456;2023-04-25T00:14:00;14.0;;;5.3;;
37365;SDS011;23239;51.504;7.456;2023-04-25T00:15:00;14.0;;;5.3;;
37365;SDS011;23239;51.504;7.456;2023-04-25T00:16:00;14.0;;;5.2;;
37365;SDS011;23239;51.504;7.456;2023-04-25T00:17:00;14.0;;;5.2;;
37365;SDS011;23239;51.504;7.456;2023-04-25T00:18:00;14.0;;;5.2;;
37365;SDS011;23239;51.504;7.456;2023-04-25T00:19:00;14.0;;;5.2;;
37365;SDS011;23239;51.504;7.456;2023-04-25T00:20:00;14.0;;;5.2;;
37365;SDS011;23239;51.504;7.456;2023-04-25T00:21:00;12.4;;;4.9;;
37365;SDS011;23239;51.504;7.456;2023-04-25T00:22:00;12.4;;;4.9;;
37365;SDS011;23239;51.504;7.456;2023-04-25T00:23:00;12.4;;;4.9;;
37365;SDS011;23239;51.504;7.456;2023-04-25T00:24:00;12.4;;;4.9;;
37365;SDS011;23239;51.504;7.456;2023-04-25T00:25:00;12.4;;;4.9;;
37365;SDS011;23239;51.504;7.456;2023-04-25T00:26:00;16.2;;;5.6;;
37365;SDS011;23239;51.504;7.456;2023-04-25T00:27:00;16.2;;;5.6;;
37365;SDS011;23239;51.504;7.456;2023-04-25T00:28:00;16.2;;;5.6;;
37365;SDS011;23239;51.504;7.456;2023-04-25T00:29:00;16.2;;;5.6;;
37365;SDS011;23239;51.504;7.456;2023-04-25T00:30:00;16.2;;;5.6;;
37365;SDS011;23239;51.504;7.456;2023-04-25T00:31:00;14.9;;;5.2;;
37365;SDS011;23239;51.504;7.456;2023-04-25T00:32:00;14.9;;;5.2;;
37365;SDS011;23239;51.504;7.456;2023-04-25T00:33:00;14.9;;;5.2;;
37365;SDS011;23239;51.504;7.456;2023-04-25T00:34:00;14.9;;;5.2;;
37365;SDS011;23239;51.504;7.456;2023-04-25T00:35:00;14.9;;;5.2;;
37365;SDS011;23239;51.504;7.456;2023-04-25T00:36:00;13.0;;;5.5;;
37365;SDS011;23239;51.504;7.456;2023-04-25T00:37:00;13.0;;;5.5;;
37365;SDS011;23239;51.504;7.456;2023-04-25T00:38:00;13.0;;;5.5;;
37365;SDS011;23239;51.504;7.456;2023-04-25T00:39:00;13.0;;;5.5;;
37365;SDS011;23239;51.504;7.456;2023-04-25T00:40:00;13.0;;;5.5;;
37365;SDS011;23239;51.504;7.456;2023-04-25T00:41:00;15.3;;;5.9;;
37365;SDS011;23239;51.504;7.456;2023-04-25T00:42:00;15.3;;;5.9;;
37365;SDS011;23239;51.504;7.456;2023-04-25T00:43:00;15.3;;;5.9;;
37365;SDS011;23239;51.504;7.456;2023-04-25T00:44:00;15.3;;;5.9;;
37365;SDS011;23239;51.504;7.456;2023-04-25T00:45:00;15.3;;;5.9;;
37365;SDS011;23239;51.504;7.456;2023-04-25T00:46:00;13.2;;;6.1;;
37365;SDS011;23239;51.504;7.456;2023-04-25T00:47:00;13.2;;;6.1;;
37365;SDS011;23239;51.504;7.456;2023-04-25T00:48:00;13.2;;;6.1;;
37365;SDS011;23239;51.504;7.456;2023-04-25T00:49:00;13.2;;;6.1;;
37365;SDS011;23239;51.504;7.456;2023-04-25T00:50:00;13.2;;;6.1;;
37365;SDS011;23239;51.504;7.456;2023-04-25T00:51:00;11.8;;;5.3;;
37365;SDS011;23239;51.504;7.456;2023-04-25T00:52:00;11.8;;;5.3;;
37365;SDS011;23239;51.504;7.456;2023-04-25T00:53:00;11.8;;;5.3;;
37365;SDS011;23239;51.504;7.456;2023-04-25T00:54:00;11.8;;;5.3;;
37365;SDS011;23239;51.504;7.456;2023-04-25T00:55:00;11.8;;;5.3;;
37365;SDS011;23239;51.504;7.456;2023-04-25T00:56:00;14.7;;;6.2;;
37365;SDS011;23239;51.504;7.456;2023-04-25T00:57:00;14.7;;;6.2;;
37365;SDS011;23239;51.504;7.456;2023-04-25T00:58:00;14.7;;;6.2;;
37365;SDS011;23239;51.504;7.456;2023-04-25T00:59:00;14.7;;;6.2;;
37365;SDS011;23239;51.504;7.456;2023-04-25T01:00:00;14.7;;;6.2;;
37365;SDS011;23239;51.504;7.456;2023-04-25T01:01:00;10.5;;;5.6;;
37365;SDS011;23239;51.504;7.456;2023-04-25T01:02:00;10.5;;;5.6;;
37365;SDS011;23239;51.504;7.456;2023-04-25T01:03:00;10.5;;;5.6;;
37365;SDS011;23239;51.504;7.456;2023-04-25T01:04:00;10.5;;;5.6;;
37365;SDS011;23239;51.504;7.456;2023-04-25T01:05:00;10.5;;;5.6;;
37365;SDS011;23239;51.504;7.456;2023-04-25T01:06:00;9.7;;;5.2;;
37365;SDS011;23239;51.504;7.456;2023-04-25T01:07:00;9.7;;;5.2;;
37365;SDS011;23239;51.504;7.456;2023-04-25T01:08:00;9.7;;;5.2;;
37365;SDS011;23239;51.504;7.456;2023-04-25T01:09:00;9.7;;;5.2;;
37365;SDS011;23239;51.504;7.456;2023-04-25T01:10:00;9.7;;;5.2;;
37365;SDS011;23239;51.504;7.456;2023-04-25T01:11:00;11.9;;;5.8;;
37365;SDS011;23239;51.504;7.456;2023-04-25T01:12:00;11.9;;;5.8;;
37365;SDS011;23239;51.504;7.456;2023-04-25T01:13:00;11.9;;;5.8;;
37365;SDS011;23239;51.504;7.456;2023-04-25T01:14:00;11.9;;;5.8;;
37365;SDS011;23239;51.504;7.456;2023-04-25T01:15:00;11.9;;;5.8;;
37365;SDS011;23239;51.504;7.456;2023-04-25T01:16:00;10.9;;;5.4;;
37365;SDS011;23239;51.504;7.456;2023-04-25T01:17:00;10.9;;;5.4;;
37365;SDS011;23239;51.504;7.456;2023-04-25T01:18:00;10.9;;;5.4;;
37365;SDS011;23239;51.504;7.456;2023-04-25T01:19:00;10.9;;;5.4;;
37365;SDS011;23239;51.504;7.456;2023-04-25T01:20:00;10.9;;;5.4;;
37365;SDS011;23239;51.504;7.456;2023-04-25T01:21:04;12.4;;;5.5;;
37365;SDS011;23239;51.504;7.456;2023-04-25T01:22:00;12.4;;;5.5;;
37365;SDS011;23239;51.504;7.456;2023-04-25T01:23:00;12.4;;;5.5;;
37365;SDS011;23239;51.504;7.456;2023-04-25T01:24:00;12.4;;;5.5;;
37365;SDS011;23239;51.504;7.456;2023-04-25T01:25:00;12.4;;;5.5;;
37365;SDS011;23239;51.504;7.456;2023-04-25T01:26:00;13.1;;;5.5;;
37365;SDS011;23239;51.504;7.456;2023-04-25T01:27:00;13.1;;;5.5;;
37365;SDS011;23239;51.504;7.456;2023-04-25T01:28:00;13.1;;;5.5;;
37365;SDS011;23239;51.504;7.456;2023-04-25T01:29:00;13.1;;;5.5;;
37365;SDS011;23239;51.504;7.456;2023-04-25T01:30:00;13.1;;;5.5;;
37365;SDS011;23239;51.504;7.456;2023-04-25T01:31:00;10.2;;;5.3;;
37365;SDS011;23239;51.504;7.456;2023-04-25T01:32:00;10.2;;;5.3;;
37365;SDS011;23239;51.504;7.456;2023-04-25T01:33:00;10.2;;;5.3;;
37365;SDS011;23239;51.504;7.456;2023-04-25T01:34:00;10.2;;;5.3;;
37365;SDS011;23239;51.504;7.456;2023-04-25T01:35:00;10.2;;;5.3;;
37365;SDS011;23239;51.504;7.456;2023-04-25T01:36:00;15.0;;;5.9;;
37365;SDS011;23239;51.504;7.456;2023-04-25T01:37:00;15.0;;;5.9;;
37365;SDS011;23239;51.504;7.456;2023-04-25T01:38:00;15.0;;;5.9;;
37365;SDS011;23239;51.504;7.456;2023-04-25T01:39:00;15.0;;;5.9;;
37365;SDS011;23239;51.504;7.456;2023-04-25T01:40:00;15.0;;;5.9;;
37365;SDS011;23239;51.504;7.456;2023-04-25T01:41:00;10.3;;;5.5;;
37365;SDS011;23239;51.504;7.456;2023-04-25T01:42:00;10.3;;;5.5;;
37365;SDS011;23239;51.504;7.456;2023-04-25T01:43:00;10.3;;;5.5;;
37365;SDS011;23239;51.504;7.456;2023-04-25T01:44:00;10.3;;;5.5;;
37365;SDS011;23239;51.504;7.456;2023-04-25T01:45:00;10.3;;;5.5;;
37365;SDS011;23239;51.504;7.456;2023-04-25T01:46:00;11.3;;;5.8;;
37365;SDS011;23239;51.504;7.456;2023-04-25T01:47:00;11.3;;;5.8;;
37365;SDS011;23239;51.504;7.456;2023-04-25T01:48:00;11.3;;;5.8;;
37365;SDS011;23239;51.504;7.456;2023-04-25T01:49:00;11.3;;;5.8;;
37365;SDS011;23239;51.504;7.456;2023-04-25T01:50:00;11.3;;;5.8;;
37365;SDS011;23239;51.504;7.456;2023-04-25T01:51:00;13.1;;;5.8;;
37365;SDS011;23239;51.504;7.456;2023-04-25T01:52:00;13.1;;;5.8;;
37365;SDS011;23239;51.504;7.456;2023-04-25T01:53:00;13.1;;;5.8;;
37365;SDS011;23239;51.504;7.456;2023-04-25T01:54:00;13.1;;;5.8;;
37365;SDS011;23239;51.504;7.456;2023-04-25T01:55:00;13.1;;;5.8;;
37365;SDS011;23239;51.504;7.456;2023-04-25T01:56:00;9.3;;;5.6;;
37365;SDS011;23239;51.504;7.456;2023-04-25T01:57:00;9.3;;;5.6;;
37365;SDS011;23239;51.504;7.456;2023-04-25T01:58:00;9.3;;;5.6;;
37365;SDS011;23239;51.504;7.456;2023-04-25T01:59:00;9.3;;;5.6;;
37365;SDS011;23239;51.504;7.456;2023-04-25T02:00:01;9.3;;;5.6;;
37365;SDS011;23239;51.504;7.456;2023-04-25T02:01:00;12.4;;;6.4;;
37365;SDS011;23239;51.504;7.456;2023-04-25T02:02:00;12.4;;;6.4;;
37365;SDS011;23239;51.504;7.456;2023-04-25T02:03:00;12.4;;;6.4;;
37365;SDS011;23239;51.504;7.456;2023-04-25T02:04:00;12.4;;;6.4;;
37365;SDS011;23239;51.504;7.456;2023-04-25T02:05:00;12.4;;;6.4;;
37365;SDS011;23239;51.504;7.456;2023-04-25T02:06:00;11.3;;;6.4;;
37365;SDS011;23239;51.504;7.456;2023-04-25T02:07:00;11.3;;;6.4;;
37365;SDS011;23239;51.504;7.456;2023-04-25T02:08:00;11.3;;;6.4;;
37365;SDS011;23239;51.504;7.456;2023-04-25T02:09:00;11.3;;;6.4;;
37365;SDS011;23239;51.504;7.456;2023-04-25T02:10:00;11.3;;;6.4;;
37365;SDS011;23239;51.504;7.456;2023-04-25T02:11:00;11.3;;;6.6;;
37365;SDS011;23239;51.504;7.456;2023-04-25T02:12:00;11.3;;;6.6;;
37365;SDS011;23239;51.504;7.456;2023-04-25T02:13:00;11.3;;;6.6;;
37365;SDS011;23239;51.504;7.456;2023-04-25T02:14:00;11.3;;;6.6;;
37365;SDS011;23239;51.504;7.456;2023-04-25T02:15:00;11.3;;;6.6;;
37365;SDS011;23239;51.504;7.456;2023-04-25T02:16:00;12.6;;;6.7;;
37365;SDS011;23239;51.504;7.456;2023-04-25T02:17:00;12.6;;;6.7;;
37365;SDS011;23239;51.504;7.456;2023-04-25T02:18:00;12.6;;;6.7;;
37365;SDS011;23239;51.504;7.456;2023-04-25T02:19:00;12.6;;;6.7;;
37365;SDS011;23239;51.504;7.456;2023-04-25T02:20:00;12.6;;;6.7;;
37365;SDS011;23239;51.504;7.456;2023-04-25T02:21:00;13.3;;;6.4;;
37365;SDS011;23239;51.504;7.456;2023-04-25T02:22:00;13.3;;;6.4;;
37365;SDS011;23239;51.504;7.456;2023-04-25T02:23:00;13.3;;;6.4;;
37365;SDS011;23239;51.504;7.456;2023-04-25T02:24:00;13.3;;;6.4;;
37365;SDS011;23239;51.504;7.456;2023-04-25T02:25:00;13.3;;;6.4;;
37365;SDS011;23239;51.504;7.456;2023-04-25T02:26:00;13.0;;;7.1;;
37365;SDS011;23239;51.504;7.456;2023-04-25T02:27:00;13.0;;;7.1;;
37365;SDS011;23239;51.504;7.456;2023-04-25T02:28:00;13.0;;;7.1;;
37365;SDS011;23239;51.504;7.456;2023-04-25T02:29:00;13.0;;;7.1;;
37365;SDS011;23239;51.504;7.456;2023-04-25T02:30:00;13.0;;;7.1;;
37365;SDS011;23239;51.504;7.456;2023-04-25T02:31:00;12.0;;;6.9;;
37365;SDS011;23239;51.504;7.456;2023-04-25T02:32:00;12.0;;;6.9;;
37365;SDS011;23239;51.504;7.456;2023-04-25T02:33:00;12.0;;;6.9;;
37365;SDS011;23239;51.504;7.456;2023-04-25T02:34:00;12.0;;;6.9;;
37365;SDS011;23239;51.504;7.456;2023-04-25T02:35:00;12.0;;;6.9;;
37365;SDS011;23239;51.504;7.456;2023-04-25T02:36:00;14.8;;;7.0;;
37365;SDS011;23239;51.504;7.456;2023-04-25T02:37:00;14.8;;;7.0;;
37365;SDS011;23239;51.504;7.456;2023-04-25T02:38:00;14.8;;;7.0;;
37365;SDS011;23239;51.504;7.456;2023-04-25T02:39:00;14.8;;;7.0;;
37365;SDS011;23239;51.504;7.456;2023-04-25T02:40:00;14.8;;;7.0;;
37365;SDS011;23239;51.504;7.456;2023-04-25T02:41:00;14.7;;;6.9;;
37365;SDS011;23239;51.504;7.456;2023-04-25T02:42:00;14.7;;;6.9;;
37365;SDS011;23239;51.504;7.456;2023-04-25T02:43:00;14.7;;;6.9;;
37365;SDS011;23239;51.504;7.456;2023-04-25T02:44:00;14.7;;;6.9;;
37365;SDS011;23239;51.504;7.456;2023-04-25T02:45:00;14.7;;;6.9;;
37365;SDS011;23239;51.504;7.456;2023-04-25T02:46:00;15.2;;;8.5;;
37365;SDS011;23239;51.504;7.456;2023-04-25T02:47:00;15.2;;;8.5;;
37365;SDS011;23239;51.504;7.456;2023-04-25T02:48:00;15.2;;;8.5;;
37365;SDS011;23239;51.504;7.456;2023-04-25T02:49:00;15.2;;;8.5;;
37365;SDS011;23239;51.504;7.456;2023-04-25T02:50:00;15.2;;;8.5;;
37365;SDS011;23239;51.504;7.456;2023-04-25T02:51:00;14.9;;;9.3;;
37365;SDS011;23239;51.504;7.456;2023-04-25T02:52:00;14.9;;;9.3;;
37365;SDS011;23239;51.504;7.456;2023-04-25T02:53:00;14.9;;;9.3;;
37365;SDS011;23239;51.504;7.456;2023-04-25T02:54:00;14.9;;;9.3;;
37365;SDS011;23239;51.504;7.456;2023-04-25T02:55:00;14.9;;;9.3;;
37365;SDS011;23239;51.504;7.456;2023-04-25T02:56:00;15.6;;;9.1;;
37365;SDS011;23239;51.504;7.456;2023-04-25T02:57:00;15.6;;;9.1;;
37365;SDS011;23239;51.504;7.456;2023-04-25T02:58:00;15.6;;;9.1;;
37365;SDS011;23239;51.504;7.456;2023-04-25T02:59:00;15.6;;;9.1;;
37365;SDS011;23239;51.504;7.456;2023-04-25T03:00:00;15.6;;;9.1;;
37365;SDS011;23239;51.504;7.456;2023-04-25T03:01:00;18.2;;;9.9;;
37365;SDS011;23239;51.504;7.456;2023-04-25T03:02:00;18.2;;;9.9;;
37365;SDS011;23239;51.504;7.456;2023-04-25T03:03:00;18.2;;;9.9;;
37365;SDS011;23239;51.504;7.456;2023-04-25T03:04:00;18.2;;;9.9;;
37365;SDS011;23239;51.504;7.456;2023-04-25T03:05:00;18.2;;;9.9;;
37365;SDS011;23239;51.504;7.456;2023-04-25T03:06:00;18.5;;;9.7;;
37365;SDS011;23239;51.504;7.456;2023-04-25T03:07:00;18.5;;;9.7;;
37365;SDS011;23239;51.504;7.456;2023-04-25T03:08:00;18.5;;;9.7;;
37365;SDS011;23239;51.504;7.456;2023-04-25T03:09:00;18.5;;;9.7;;
37365;SDS011;23239;51.504;7.456;2023-04-25T03:10:00;18.5;;;9.7;;
37365;SDS011;23239;51.504;7.456;2023-04-25T03:11:00;16.5;;;8.9;;
37365;SDS011;23239;51.504;7.456;2023-04-25T03:12:00;16.5;;;8.9;;
37365;SDS011;23239;51.504;7.456;2023-04-25T03:13:00;16.5;;;8.9;;
37365;SDS011;23239;51.504;7.456;2023-04-25T03:14:00;16.5;;;8.9;;
37365;SDS011;23239;51.504;7.456;2023-04-25T03:15:00;16.5;;;8.9;;
37365;SDS011;23239;51.504;7.456;2023-04-25T03:16:00;16.8;;;8.1;;
37365;SDS011;23239;51.504;7.456;2023-04-25T03:17:00;16.8;;;8.1;;
37365;SDS011;23239;51.504;7.456;2023-04-25T03:18:00;16.8;;;8.1;;
37365;SDS011;23239;51.504;7.456;2023-04-25T03:19:00;16.8;;;8.1;;
37365;SDS011;23239;51.504;7.456;2023-04-25T03:20:00;16.8;;;8.1;;
37365;SDS011;23239;51.504;7.456;2023-04-25T03:21:00;13.7;;;7.8;;
37365;SDS011;23239;51.504;7.456;2023-04-25T03:22:00;13.7;;;7.8;;
37365;SDS011;23239;51.504;7.456;2023-04-25T03:23:00;13.7;;;7.8;;
37365;SDS011;23239;51.504;7.456;2023-04-25T03:24:01;13.7;;;7.8;;
37365;SDS011;23239;51.504;7.456;2023-04-25T03:25:00;13.7;;;7.8;;
37365;SDS011;23239;51.504;7.456;2023-04-25T03:26:00;19.1;;;8.1;;
37365;SDS011;23239;51.504;7.456;2023-04-25T03:27:00;19.1;;;8.1;;
37365;SDS011;23239;51.504;7.456;2023-04-25T03:28:00;19.1;;;8.1;;
37365;SDS011;23239;51.504;7.456;2023-04-25T03:29:00;19.1;;;8.1;;
37365;SDS011;23239;51.504;7.456;2023-04-25T03:30:00;19.1;;;8.1;;
37365;SDS011;23239;51.504;7.456;2023-04-25T03:31:00;15.8;;;7.5;;
37365;SDS011;23239;51.504;7.456;2023-04-25T03:32:00;15.8;;;7.5;;
37365;SDS011;23239;51.504;7.456;2023-04-25T03:33:00;15.8;;;7.5;;
37365;SDS011;23239;51.504;7.456;2023-04-25T03:34:00;15.8;;;7.5;;
37365;SDS011;23239;51.504;7.456;2023-04-25T03:35:00;15.8;;;7.5;;
37365;SDS011;23239;51.504;7.456;2023-04-25T03:36:00;15.5;;;6.8;;
37365;SDS011;23239;51.504;7.456;2023-04-25T03:37:00;15.5;;;6.8;;
37365;SDS011;23239;51.504;7.456;2023-04-25T03:38:00;15.5;;;6.8;;
37365;SDS011;23239;51.504;7.456;2023-04-25T03:39:00;15.5;;;6.8;;
37365;SDS011;23239;51.504;7.456;2023-04-25T03:40:00;15.5;;;6.8;;
37365;SDS011;23239;51.504;7.456;2023-04-25T03:41:00;16.8;;;6.8;;
37365;SDS011;23239;51.504;7.456;2023-04-25T03:42:00;16.8;;;6.8;;
37365;SDS011;23239;51.504;7.456;2023-04-25T03:43:00;16.8;;;6.8;;
37365;SDS011;23239;51.504;7.456;2023-04-25T03:44:00;16.8;;;6.8;;
37365;SDS011;23239;51.504;7.456;2023-04-25T03:45:00;16.8;;;6.8;;
37365;SDS011;23239;51.504;7.456;2023-04-25T03:46:00;16.2;;;6.3;;
37365;SDS011;23239;51.504;7.456;2023-04-25T03:47:00;16.2;;;6.3;;
37365;SDS011;23239;51.504;7.456;2023-04-25T03:48:00;16.2;;;6.3;;
37365;SDS011;23239;51.504;7.456;2023-04-25T03:49:00;16.2;;;6.3;;
37365;SDS011;23239;51.504;7.456;2023-04-25T03:50:00;16.2;;;6.3;;
37365;SDS011;23239;51.504;7.456;2023-04-25T03:51:00;13.6;;;6.8;;
37365;SDS011;23239;51.504;7.456;2023-04-25T03:52:00;13.6;;;6.8;;
37365;SDS011;23239;51.504;7.456;2023-04-25T03:53:00;13.6;;;6.8;;
37365;SDS011;23239;51.504;7.456;2023-04-25T03:54:00;13.6;;;6.8;;
37365;SDS011;23239;51.504;7.456;2023-04-25T03:55:00;13.6;;;6.8;;
37365;SDS011;23239;51.504;7.456;2023-04-25T03:56:00;18.8;;;6.8;;
37365;SDS011;23239;51.504;7.456;2023-04-25T03:57:00;18.8;;;6.8;;
37365;SDS011;23239;51.504;7.456;2023-04-25T03:58:00;18.8;;;6.8;;
37365;SDS011;23239;51.504;7.456;2023-04-25T03:59:00;18.8;;;6.8;;
37365;SDS011;23239;51.504;7.456;2023-04-25T04:00:00;18.8;;;6.8;;
37365;SDS011;23239;51.504;7.456;2023-04-25T04:01:00;15.3;;;6.6;;
37365;SDS011;23239;51.504;7.456;2023-04-25T04:02:00;15.3;;;6.6;;
37365;SDS011;23239;51.504;7.456;2023-04-25T04:03:00;15.3;;;6.6;;
37365;SDS011;23239;51.504;7.456;2023-04-25T04:04:00;15.3;;;6.6;;
37365;SDS011;23239;51.504;7.456;2023-04-25T04:05:00;15.3;;;6.6;;
37365;SDS011;23239;51.504;7.456;2023-04-25T04:06:00;16.2;;;6.4;;
37365;SDS011;23239;51.504;7.456;2023-04-25T04:07:00;16.2;;;6.4;;
37365;SDS011;23239;51.504;7.456;2023-04-25T04:08:00;16.2;;;6.4;;
37365;SDS011;23239;51.504;7.456;2023-04-25T04:09:00;16.2;;;6.4;;
37365;SDS011;23239;51.504;7.456;2023-04-25T04:10:00;16.2;;;6.4;;
37365;SDS011;23239;51.504;7.456;2023-04-25T04:11:00;17.3;;;6.9;;
37365;SDS011;23239;51.504;7.456;2023-04-25T04:12:00;17.3;;;6.9;;
37365;SDS011;23239;51.504;7.456;2023-04-25T04:13:00;17.3;;;6.9;;
37365;SDS011;23239;51.504;7.456;2023-04-25T04:14:00;17.3;;;6.9;;
37365;SDS011;23239;51.504;7.456;2023-04-25T04:15:00;17.3;;;6.9;;
37365;SDS011;23239;51.504;7.456;2023-04-25T04:16:00;18.9;;;7.0;;
37365;SDS011;23239;51.504;7.456;2023-04-25T04:17:00;18.9;;;7.0;;
37365;SDS011;23239;51.504;7.456;2023-04-25T04:18:00;18.9;;;7.0;;
37365;SDS011;23239;51.504;7.456;2023-04-25T04:19:00;18.9;;;7.0;;
37365;SDS011;23239;51.504;7.456;2023-04-25T04:20:00;18.9;;;7.0;;
37365;SDS011;23239;51.504;7.456;2023-04-25T04:21:00;16.4;;;7.6;;
37365;SDS011;23239;51.504;7.456;2023-04-25T04:22:00;16.4;;;7.6;;
37365;SDS011;23239;51.504;7.456;2023-04-25T04:23:00;16.4;;;7.6;;
37365;SDS011;23239;51.504;7.456;2023-04-25T04:24:00;16.4;;;7.6;;
37365;SDS011;23239;51.504;7.456;2023-04-25T04:25:00;16.4;;;7.6;;
37365;SDS011;23239;51.504;7.456;2023-04-25T04:26:00;8.4;;;4.0;;
37365;SDS011;23239;51.504;7.456;2023-04-25T04:27:00;8.4;;;4.0;;
37365;SDS011;23239;51.504;7.456;2023-04-25T04:28:00;8.4;;;4.0;;
37365;SDS011;23239;51.504;7.456;2023-04-25T04:29:00;8.4;;;4.0;;
37365;SDS011;23239;51.504;7.456;2023-04-25T04:30:00;8.4;;;4.0;;
37365;SDS011;23239;51.504;7.456;2023-04-25T04:31:00;8.6;;;3.4;;
37365;SDS011;23239;51.504;7.456;2023-04-25T04:32:00;8.6;;;3.4;;
37365;SDS011;23239;51.504;7.456;2023-04-25T04:33:00;8.6;;;3.4;;
37365;SDS011;23239;51.504;7.456;2023-04-25T04:34:00;8.6;;;3.4;;
37365;SDS011;23239;51.504;7.456;2023-04-25T04:35:00;8.6;;;3.4;;
37365;SDS011;23239;51.504;7.456;2023-04-25T04:36:00;6.4;;;3.3;;
37365;SDS011;23239;51.504;7.456;2023-04-25T04:37:00;6.4;;;3.3;;
37365;SDS011;23239;51.504;7.456;2023-04-25T04:38:00;6.4;;;3.3;;
37365;SDS011;23239;51.504;7.456;2023-04-25T04:39:00;6.4;;;3.3;;
37365;SDS011;23239;51.504;7.456;2023-04-25T04:40:00;6.4;;;3.3;;
37365;SDS011;23239;51.504;7.456;2023-04-25T04:41:00;11.2;;;3.5;;
37365;SDS011;23239;51.504;7.456;2023-04-25T04:42:00;11.2;;;3.5;;
37365;SDS011;23239;51.504;7.456;2023-04-25T04:43:00;11.2;;;3.5;;
37365;SDS011;23239;51.504;7.456;2023-04-25T04:44:00;11.2;;;3.5;;
37365;SDS011;23239;51.504;7.456;2023-04-25T04:45:00;11.2;;;3.5;;
37365;SDS011;23239;51.504;7.456;2023-04-25T04:46:00;11.2;;;3.7;;
37365;SDS011;23239;51.504;7.456;2023-04-25T04:47:00;11.2;;;3.7;;
37365;SDS011;23239;51.504;7.456;2023-04-25T04:48:00;11.2;;;3.7;;
37365;SDS011;23239;51.504;7.456;2023-04-25T04:49:00;11.2;;;3.7;;
37365;SDS011;23239;51.504;7.456;2023-04-25T04:50:00;11.2;;;3.7;;
37365;SDS011;23239;51.504;7.456;2023-04-25T04:51:00;12.1;;;3.5;;
37365;SDS011;23239;51.504;7.456;2023-04-25T04:52:00;12.1;;;3.5;;
37365;SDS011;23239;51.504;7.456;2023-04-25T04:53:00;12.1;;;3.5;;
37365;SDS011;23239;51.504;7.456;2023-04-25T04:54:00;12.1;;;3.5;;
37365;SDS011;23239;51.504;7.456;2023-04-25T04:55:00;12.1;;;3.5;;
37365;SDS011;23239;51.504;7.456;2023-04-25T04:56:00;11.7;;;3.5;;
37365;SDS011;23239;51.504;7.456;2023-04-25T04:57:00;11.7;;;3.5;;
37365;SDS011;23239;51.504;7.456;2023-04-25T04:58:00;11.7;;;3.5;;
37365;SDS011;23239;51.504;7.456;2023-04-25T04:59:00;11.7;;;3.5;;
37365;SDS011;23239;51.504;7.456;2023-04-25T05:00:00;11.7;;;3.5;;
37365;SDS011;23239;51.504;7.456;2023-04-25T05:01:00;10.4;;;3.3;;
37365;SDS011;23239;51.504;7.456;2023-04-25T05:02:00;10.4;;;3.3;;
37365;SDS011;23239;51.504;7.456;2023-04-25T05:03:00;10.4;;;3.3;;
37365;SDS011;23239;51.504;7.456;2023-04-25T05:04:00;10.4;;;3.3;;
37365;SDS011;23239;51.504;7.456;2023-04-25T05:05:00;10.4;;;3.3;;
37365;SDS011;23239;51.504;7.456;2023-04-25T05:06:00;9.3;;;3.1;;
37365;SDS011;23239;51.504;7.456;2023-04-25T05:07:00;9.3;;;3.1;;
37365;SDS011;23239;51.504;7.456;2023-04-25T05:08:00;9.3;;;3.1;;
37365;SDS011;23239;51.504;7.456;2023-04-25T05:09:00;9.3;;;3.1;;
37365;SDS011;23239;51.504;7.456;2023-04-25T05:10:00;9.3;;;3.1;;
37365;SDS011;23239;51.504;7.456;2023-04-25T05:11:00;7.4;;;3.0;;
37365;SDS011;23239;51.504;7.456;2023-04-25T05:12:00;7.4;;;3.0;;
37365;SDS011;23239;51.504;7.456;2023-04-25T05:13:00;7.4;;;3.0;;
37365;SDS011;23239;51.504;7.456;2023-04-25T05:14:00;7.4;;;3.0;;
37365;SDS011;23239;51.504;7.456;2023-04-25T05:15:00;7.4;;;3.0;;
37365;SDS011;23239;51.504;7.456;2023-04-25T05:16:00;12.2;;;3.6;;
37365;SDS011;23239;51.504;7.456;2023-04-25T05:17:00;12.2;;;3.6;;
37365;SDS011;23239;51.504;7.456;2023-04-25T05:18:00;12.2;;;3.6;;
37365;SDS011;23239;51.504;7.456;2023-04-25T05:19:00;12.2;;;3.6;;
37365;SDS011;23239;51.504;7.456;2023-04-25T05:20:00;12.2;;;3.6;;
37365;SDS011;23239;51.504;7.456;2023-04-25T05:21:00;9.4;;;3.4;;
37365;SDS011;23239;51.504;7.456;2023-04-25T05:22:00;9.4;;;3.4;;
37365;SDS011;23239;51.504;7.456;2023-04-25T05:23:00;9.4;;;3.4;;
37365;SDS011;23239;51.504;7.456;2023-04-25T05:24:00;9.4;;;3.4;;
37365;SDS011;23239;51.504;7.456;2023-04-25T05:25:00;9.4;;;3.4;;
37365;SDS011;23239;51.504;7.456;2023-04-25T05:26:00;12.2;;;4.4;;
37365;SDS011;23239;51.504;7.456;2023-04-25T05:27:00;12.2;;;4.4;;
37365;SDS011;23239;51.504;7.456;2023-04-25T05:28:00;12.2;;;4.4;;
37365;SDS011;23239;51.504;7.456;2023-04-25T05:29:00;12.2;;;4.4;;
37365;SDS011;23239;51.504;7.456;2023-04-25T05:30:00;12.2;;;4.4;;
37365;SDS011;23239;51.504;7.456;2023-04-25T05:31:00;13.0;;;4.0;;
37365;SDS011;23239;51.504;7.456;2023-04-25T05:32:00;13.0;;;4.0;;
37365;SDS011;23239;51.504;7.456;2023-04-25T05:33:00;13.0;;;4.0;;
37365;SDS011;23239;51.504;7.456;2023-04-25T05:34:00;13.0;;;4.0;;
37365;SDS011;23239;51.504;7.456;2023-04-25T05:35:00;13.0;;;4.0;;
37365;SDS011;23239;51.504;7.456;2023-04-25T05:36:00;13.1;;;4.0;;
37365;SDS011;23239;51.504;7.456;2023-04-25T05:37:00;13.1;;;4.0;;
37365;SDS011;23239;51.504;7.456;2023-04-25T05:38:00;13.1;;;4.0;;
37365;SDS011;23239;51.504;7.456;2023-04-25T05:39:00;13.1;;;4.0;;
37365;SDS011;23239;51.504;7.456;2023-04-25T05:40:00;13.1;;;4.0;;
37365;SDS011;23239;51.504;7.456;2023-04-25T05:41:00;16.3;;;4.5;;
37365;SDS011;23239;51.504;7.456;2023-04-25T05:42:00;16.3;;;4.5;;
37365;SDS011;23239;51.504;7.456;2023-04-25T05:43:00;16.3;;;4.5;;
37365;SDS011;23239;51.504;7.456;2023-04-25T05:44:00;16.3;;;4.5;;
37365;SDS011;23239;51.504;7.456;2023-04-25T05:45:00;16.3;;;4.5;;
37365;SDS011;23239;51.504;7.456;2023-04-25T05:46:00;17.1;;;4.8;;
37365;SDS011;23239;51.504;7.456;2023-04-25T05:47:00;17.1;;;4.8;;
37365;SDS011;23239;51.504;7.456;2023-04-25T05:48:00;17.1;;;4.8;;
37365;SDS011;23239;51.504;7.456;2023-04-25T05:49:00;17.1;;;4.8;;
37365;SDS011;23239;51.504;7.456;2023-04-25T05:50:00;17.1;;;4.8;;
37365;SDS011;23239;51.504;7.456;2023-04-25T05:51:00;20.3;;;4.8;;
37365;SDS011;23239;51.504;7.456;2023-04-25T05:52:00;20.3;;;4.8;;
37365;SDS011;23239;51.504;7.456;2023-04-25T05:53:00;20.3;;;4.8;;
37365;SDS011;23239;51.504;7.456;2023-04-25T05:54:00;20.3;;;4.8;;
37365;SDS011;23239;51.504;7.456;2023-04-25T05:55:00;20.3;;;4.8;;
37365;SDS011;23239;51.504;7.456;2023-04-25T05:56:00;21.6;;;5.4;;
37365;SDS011;23239;51.504;7.456;2023-04-25T05:57:00;21.6;;;5.4;;
37365;SDS011;23239;51.504;7.456;2023-04-25T05:58:00;21.6;;;5.4;;
37365;SDS011;23239;51.504;7.456;2023-04-25T05:59:00;21.6;;;5.4;;
37365;SDS011;23239;51.504;7.456;2023-04-25T06:00:00;21.6;;;5.4;;
37365;SDS011;23239;51.504;7.456;2023-04-25T06:01:00;17.8;;;4.8;;
37365;SDS011;23239;51.504;7.456;2023-04-25T06:02:00;17.8;;;4.8;;
37365;SDS011;23239;51.504;7.456;2023-04-25T06:03:00;17.8;;;4.8;;
37365;SDS011;23239;51.504;7.456;2023-04-25T06:04:00;17.8;;;4.8;;
37365;SDS011;23239;51.504;7.456;2023-04-25T06:05:00;17.8;;;4.8;;
37365;SDS011;23239;51.504;7.456;2023-04-25T06:06:00;14.0;;;4.4;;
37365;SDS011;23239;51.504;7.456;2023-04-25T06:07:00;14.0;;;4.4;;